createdAt,value
2019-03-28T00:02:23.458Z,2.02
2019-03-28T00:04:54.817Z,1.90
2019-03-28T00:07:25.121Z,1.50
2019-03-28T00:09:55.489Z,1.65
2019-03-28T00:12:25.989Z,2.35
2019-03-28T00:14:56.670Z,1.67
2019-03-28T00:17:27.148Z,1.45
2019-03-28T00:19:57.506Z,2.60
2019-03-28T00:22:38.579Z,1.62
2019-03-28T00:25:11.114Z,2.27
2019-03-28T00:27:41.459Z,1.62
2019-03-28T00:30:12.089Z,1.57
2019-03-28T00:32:42.412Z,2.35
2019-03-28T00:35:13.073Z,1.57
2019-03-28T00:37:43.428Z,2.15
2019-03-28T00:40:14.128Z,2.40
2019-03-28T00:42:44.417Z,1.65
2019-03-28T00:45:15.148Z,2.15
2019-03-28T00:47:45.596Z,2.35
2019-03-28T00:50:16.128Z,3.30
2019-03-28T00:52:46.659Z,1.50
2019-03-28T00:55:17.053Z,1.40
2019-03-28T00:57:47.727Z,1.95
2019-03-28T01:00:18.797Z,1.82
2019-03-28T01:02:49.277Z,1.90
2019-03-28T01:05:19.682Z,1.80
2019-03-28T01:07:50.193Z,4.03
2019-03-28T01:10:20.656Z,2.47
2019-03-28T01:12:51.257Z,3.25
2019-03-28T01:15:21.892Z,2.08
2019-03-28T01:17:52.289Z,2.17
2019-03-28T01:20:22.635Z,2.50
2019-03-28T01:22:53.324Z,1.35
2019-03-28T01:25:24.319Z,2.47
2019-03-28T01:27:54.668Z,1.87
2019-03-28T01:30:25.142Z,1.52
2019-03-28T01:32:55.532Z,1.50
2019-03-28T01:35:25.975Z,2.52
2019-03-28T01:37:56.385Z,1.98
2019-03-28T01:40:26.812Z,1.55
2019-03-28T01:42:57.138Z,1.62
2019-03-28T01:45:28.043Z,2.45
2019-03-28T01:47:58.742Z,4.80
2019-03-28T01:50:29.192Z,2.10
2019-03-28T01:52:59.548Z,2.65
2019-03-28T01:55:29.982Z,3.10
2019-03-28T01:58:00.298Z,2.10
2019-03-28T02:00:30.902Z,2.15
2019-03-28T02:03:01.251Z,1.85
2019-03-28T02:05:31.688Z,3.45
2019-03-28T02:08:02.849Z,2.42
2019-03-28T02:10:33.370Z,3.30
2019-03-28T02:13:03.798Z,2.90
2019-03-28T02:15:34.459Z,2.30
2019-03-28T02:18:05.282Z,1.50
2019-03-28T02:20:36.175Z,2.12
2019-03-28T02:23:06.574Z,1.75
2019-03-28T02:25:37.049Z,1.62
2019-03-28T02:28:07.538Z,1.62
2019-03-28T02:30:38.918Z,1.92
2019-03-28T02:33:09.218Z,1.57
2019-03-28T02:35:39.953Z,2.25
2019-03-28T02:38:10.381Z,2.20
2019-03-28T02:40:40.673Z,2.25
2019-03-28T02:43:11.565Z,1.90
2019-03-28T02:45:43.154Z,2.27
2019-03-28T02:48:13.585Z,2.75
2019-03-28T02:50:43.996Z,2.22
2019-03-28T02:53:14.410Z,2.20
2019-03-28T02:55:44.846Z,2.40
2019-03-28T02:58:15.175Z,2.02
2019-03-28T03:00:45.755Z,2.12
2019-03-28T03:03:16.266Z,3.77
2019-03-28T03:05:46.593Z,2.50
2019-03-28T03:08:17.055Z,1.70
2019-03-28T03:10:47.554Z,2.37
2019-03-28T03:13:18.076Z,2.87
2019-03-28T03:15:48.447Z,2.85
2019-03-28T03:18:21.415Z,2.47
2019-03-28T03:20:51.926Z,3.08
2019-03-28T03:23:22.301Z,3.05
2019-03-28T03:25:52.654Z,1.95
2019-03-28T03:28:23.000Z,1.80
2019-03-28T03:30:53.440Z,2.05
2019-03-28T03:33:23.877Z,1.82
2019-03-28T03:35:54.236Z,2.20
2019-03-28T03:38:24.633Z,2.55
2019-03-28T03:40:55.121Z,2.17
2019-03-28T03:43:25.821Z,2.40
2019-03-28T03:45:56.478Z,2.22
2019-03-28T03:48:26.824Z,2.20
2019-03-28T03:50:57.119Z,2.30
2019-03-28T03:53:28.505Z,3.20
2019-03-28T03:55:58.896Z,3.27
2019-03-28T03:58:29.194Z,4.25
2019-03-28T04:00:59.598Z,4.17
2019-03-28T04:03:29.993Z,2.67
2019-03-28T04:06:00.333Z,3.25
2019-03-28T04:08:30.678Z,2.58
2019-03-28T04:11:00.974Z,2.75
2019-03-28T04:13:31.355Z,2.17
2019-03-28T04:16:01.867Z,2.92
2019-03-28T04:18:32.140Z,2.40
2019-03-28T04:21:02.538Z,2.08
2019-03-28T04:23:32.979Z,2.70
2019-03-28T04:26:03.274Z,2.92
2019-03-28T04:28:33.572Z,1.82
2019-03-28T04:31:03.871Z,2.00
2019-03-28T04:33:35.757Z,2.75
2019-03-28T04:36:06.305Z,2.15
2019-03-28T04:38:36.622Z,2.77
2019-03-28T04:41:07.146Z,2.22
2019-03-28T04:43:37.450Z,1.98
2019-03-28T04:46:07.860Z,1.70
2019-03-28T04:48:38.272Z,1.60
2019-03-28T04:51:11.664Z,1.77
2019-03-28T04:53:41.937Z,1.55
2019-03-28T04:56:12.490Z,1.45
2019-03-28T04:58:44.874Z,1.60
2019-03-28T05:01:15.441Z,1.40
2019-03-28T05:03:45.874Z,2.30
2019-03-28T05:06:16.289Z,1.82
2019-03-28T05:08:46.746Z,1.92
2019-03-28T05:11:17.185Z,1.70
2019-03-28T05:13:47.779Z,1.50
2019-03-28T05:16:19.143Z,1.60
2019-03-28T05:18:49.549Z,1.95
2019-03-28T05:21:19.988Z,2.15
2019-03-28T05:23:50.276Z,2.20
2019-03-28T05:26:20.598Z,2.52
2019-03-28T05:28:57.340Z,2.15
2019-03-28T05:31:23.150Z,2.80
2019-03-28T05:33:53.569Z,3.00
2019-03-28T05:36:24.041Z,3.05
2019-03-28T05:38:54.500Z,2.65
2019-03-28T05:41:24.791Z,1.80
2019-03-28T05:43:55.183Z,2.22
2019-03-28T05:46:25.924Z,5.83
2019-03-28T05:48:56.271Z,3.60
2019-03-28T05:51:26.588Z,2.77
2019-03-28T05:53:57.018Z,2.33
2019-03-28T05:56:27.568Z,2.45
2019-03-28T05:59:10.182Z,2.05
2019-03-28T06:01:30.728Z,5.40
2019-03-28T06:04:01.122Z,2.83
2019-03-28T06:06:31.906Z,2.22
2019-03-28T06:09:02.428Z,4.65
2019-03-28T06:11:33.027Z,3.02
2019-03-28T06:14:03.568Z,2.72
2019-03-28T06:16:33.949Z,4.75
2019-03-28T06:19:04.384Z,3.33
2019-03-28T06:21:34.857Z,3.22
2019-03-28T06:24:05.514Z,3.27
2019-03-28T06:26:36.268Z,3.17
2019-03-28T06:29:08.607Z,3.67
2019-03-28T06:31:39.051Z,2.45
2019-03-28T06:34:09.782Z,2.55
2019-03-28T06:36:40.512Z,3.45
2019-03-28T06:39:10.968Z,2.47
2019-03-28T06:41:44.205Z,3.20
2019-03-28T06:44:13.592Z,2.95
2019-03-28T06:46:44.016Z,5.28
2019-03-28T06:49:14.647Z,5.17
2019-03-28T06:51:45.159Z,3.12
2019-03-28T06:54:15.747Z,3.40
2019-03-28T06:56:46.161Z,3.95
2019-03-28T06:59:16.467Z,5.35
2019-03-28T07:01:46.828Z,4.30
2019-03-28T07:04:17.325Z,4.72
2019-03-28T07:06:47.981Z,2.75
2019-03-28T07:09:18.560Z,4.60
2019-03-28T07:11:49.215Z,2.92
2019-03-28T07:14:23.048Z,2.45
2019-03-28T07:16:53.656Z,2.47
2019-03-28T07:19:24.081Z,2.58
2019-03-28T07:21:54.968Z,3.72
2019-03-28T07:24:25.667Z,2.85
2019-03-28T07:26:56.068Z,3.02
2019-03-28T07:29:26.534Z,3.92
2019-03-28T07:31:56.960Z,2.58
2019-03-28T07:34:27.357Z,2.58
2019-03-28T07:36:57.784Z,2.58
2019-03-28T07:39:28.326Z,2.80
2019-03-28T07:41:58.754Z,5.33
2019-03-28T07:44:29.126Z,4.08
2019-03-28T07:46:59.594Z,6.05
2019-03-28T07:49:29.948Z,3.37
2019-03-28T07:52:00.321Z,2.87
2019-03-28T07:54:30.835Z,3.15
2019-03-28T07:57:01.316Z,3.17
2019-03-28T07:59:31.914Z,3.45
2019-03-28T08:02:02.253Z,2.90
2019-03-28T08:04:32.537Z,2.45
2019-03-28T08:07:02.995Z,2.85
2019-03-28T08:09:36.819Z,3.27
2019-03-28T08:12:21.441Z,2.33
2019-03-28T08:14:39.191Z,3.60
2019-03-28T08:17:09.544Z,2.70
2019-03-28T08:19:41.557Z,3.60
2019-03-28T08:22:12.019Z,4.12
2019-03-28T08:24:42.996Z,3.52
2019-03-28T08:27:13.499Z,3.77
2019-03-28T08:29:44.049Z,3.58
2019-03-28T08:32:17.537Z,3.47
2019-03-28T08:34:48.003Z,5.40
2019-03-28T08:37:18.735Z,4.35
2019-03-28T08:39:49.141Z,3.47
2019-03-28T08:42:19.966Z,3.12
2019-03-28T08:44:50.672Z,3.20
2019-03-28T08:47:21.026Z,2.65
2019-03-28T08:49:51.416Z,2.70
2019-03-28T08:52:21.752Z,3.02
2019-03-28T08:54:52.387Z,2.08
2019-03-28T08:57:22.885Z,2.87
2019-03-28T08:59:53.545Z,3.85
2019-03-28T09:02:25.681Z,2.22
2019-03-28T09:04:56.143Z,2.27
2019-03-28T09:07:26.621Z,4.10
2019-03-28T09:09:58.186Z,2.00
2019-03-28T09:12:35.147Z,3.17
2019-03-28T09:15:06.255Z,3.05
2019-03-28T09:17:36.705Z,4.28
2019-03-28T09:20:08.706Z,2.35
2019-03-28T09:22:39.359Z,2.37
2019-03-28T09:25:10.312Z,4.08
2019-03-28T09:27:40.739Z,2.35
2019-03-28T09:30:13.074Z,2.58
2019-03-28T09:32:43.725Z,1.95
2019-03-28T09:35:19.237Z,2.33
2019-03-28T09:37:50.701Z,2.15
2019-03-28T09:40:21.123Z,3.05
2019-03-28T09:42:51.634Z,3.42
2019-03-28T09:45:22.083Z,2.98
2019-03-28T09:47:52.448Z,3.12
2019-03-28T09:50:22.918Z,2.90
2019-03-28T09:52:53.293Z,2.20
2019-03-28T09:55:23.825Z,3.98
2019-03-28T09:57:54.444Z,2.87
2019-03-28T10:00:25.017Z,1.40
2019-03-28T10:02:55.498Z,1.92
2019-03-28T10:05:25.917Z,1.50
2019-03-28T10:07:56.476Z,1.55
2019-03-28T10:10:26.982Z,0.90
2019-03-28T10:12:57.762Z,1.70
2019-03-28T10:15:28.607Z,2.02
2019-03-28T10:17:59.144Z,2.65
2019-03-28T10:20:29.437Z,2.33
2019-03-28T10:22:59.820Z,2.42
2019-03-28T10:25:30.271Z,2.25
2019-03-28T10:28:00.702Z,1.82
2019-03-28T10:30:42.094Z,2.10
2019-03-28T10:33:12.680Z,1.72
2019-03-28T10:35:43.256Z,1.60
2019-03-28T10:38:13.674Z,1.45
2019-03-28T10:40:44.025Z,1.00
2019-03-28T10:43:14.513Z,1.57
2019-03-28T10:45:45.003Z,2.72
2019-03-28T10:48:15.398Z,1.87
2019-03-28T10:50:46.242Z,2.25
2019-03-28T10:53:16.845Z,1.90
2019-03-28T10:55:47.391Z,2.00
2019-03-28T10:58:19.345Z,3.45
2019-03-28T11:00:50.064Z,2.95
2019-03-28T11:03:20.629Z,2.80
2019-03-28T11:05:51.034Z,2.30
2019-03-28T11:08:21.442Z,1.50
2019-03-28T11:10:52.818Z,1.00
2019-03-28T11:13:23.152Z,1.80
2019-03-28T11:15:53.853Z,2.95
2019-03-28T11:18:24.148Z,1.87
2019-03-28T11:20:54.596Z,3.70
2019-03-28T11:23:24.924Z,3.30
2019-03-28T11:25:57.313Z,3.70
2019-03-28T11:28:27.503Z,2.67
2019-03-28T11:30:58.972Z,3.52
2019-03-28T11:33:29.347Z,3.55
2019-03-28T11:35:59.720Z,2.33
2019-03-28T11:38:30.081Z,3.47
2019-03-28T11:41:00.609Z,2.37
2019-03-28T11:43:31.084Z,2.50
2019-03-28T11:46:02.022Z,1.98
2019-03-28T11:48:32.360Z,1.90
2019-03-28T11:51:03.095Z,1.95
2019-03-28T11:53:33.747Z,2.10
2019-03-28T11:56:04.505Z,2.40
2019-03-28T11:58:34.851Z,2.80
2019-03-28T12:01:05.530Z,1.70
2019-03-28T12:03:35.917Z,1.87
2019-03-28T12:06:06.312Z,2.72
2019-03-28T12:08:37.954Z,1.90
2019-03-28T12:11:08.305Z,3.30
2019-03-28T12:13:44.852Z,2.40
2019-03-28T12:16:10.763Z,3.08
2019-03-28T12:18:41.068Z,2.20
2019-03-28T12:21:11.460Z,1.27
2019-03-28T12:23:41.891Z,1.10
2019-03-28T12:26:12.659Z,1.65
2019-03-28T12:28:43.263Z,1.62
2019-03-28T12:31:13.738Z,1.02
2019-03-28T12:33:44.335Z,1.50
2019-03-28T12:36:15.225Z,2.10
2019-03-28T12:38:45.537Z,1.92
2019-03-28T12:41:16.380Z,1.00
2019-03-28T12:43:47.119Z,1.40
2019-03-28T12:46:17.542Z,1.42
2019-03-28T12:48:48.310Z,2.70
2019-03-28T12:51:18.642Z,1.25
2019-03-28T12:53:49.395Z,1.85
2019-03-28T12:56:20.776Z,1.87
2019-03-28T12:58:51.198Z,2.08
2019-03-28T13:01:21.546Z,1.30
2019-03-28T13:03:51.842Z,1.87
2019-03-28T13:06:22.663Z,1.77
2019-03-28T13:08:52.950Z,1.67
2019-03-28T13:11:23.347Z,1.45
2019-03-28T13:13:53.772Z,0.95
2019-03-28T13:16:24.255Z,1.00
2019-03-28T13:18:55.073Z,1.72
2019-03-28T13:21:25.600Z,2.08
2019-03-28T13:23:55.916Z,2.58
2019-03-28T13:26:26.651Z,2.42
2019-03-28T13:28:57.474Z,2.05
2019-03-28T13:31:27.990Z,1.65
2019-03-28T13:34:01.376Z,2.83
2019-03-28T13:36:32.528Z,1.57
2019-03-28T13:39:02.856Z,1.12
2019-03-28T13:41:33.473Z,1.30
2019-03-28T13:44:03.907Z,2.00
2019-03-28T13:46:34.401Z,2.25
2019-03-28T13:49:05.144Z,2.42
2019-03-28T13:51:35.674Z,2.42
2019-03-28T13:54:05.989Z,2.00
2019-03-28T13:56:38.539Z,1.10
2019-03-28T13:59:08.477Z,1.40
2019-03-28T14:01:39.068Z,2.30
2019-03-28T14:04:09.419Z,2.47
2019-03-28T14:06:40.278Z,2.42
2019-03-28T14:09:10.797Z,1.22
2019-03-28T14:11:41.143Z,2.10
2019-03-28T14:14:11.524Z,1.80
2019-03-28T14:16:41.952Z,2.20
2019-03-28T14:19:12.348Z,1.55
2019-03-28T14:21:42.778Z,1.52
2019-03-28T14:24:13.608Z,2.00
2019-03-28T14:26:43.906Z,2.17
2019-03-28T14:29:14.350Z,2.92
2019-03-28T14:31:45.002Z,3.17
2019-03-28T14:34:15.666Z,2.72
2019-03-28T14:36:46.189Z,2.92
2019-03-28T14:39:16.628Z,2.45
2019-03-28T14:41:47.259Z,2.58
2019-03-28T14:44:17.673Z,1.80
2019-03-28T14:46:48.103Z,2.05
2019-03-28T14:49:18.860Z,1.65
2019-03-28T14:51:49.346Z,1.72
2019-03-28T14:54:20.025Z,0.95
2019-03-28T14:56:52.613Z,1.72
2019-03-28T14:59:32.308Z,2.08
2019-03-28T15:01:56.178Z,3.05
2019-03-28T15:04:27.205Z,1.27
2019-03-28T15:06:57.602Z,1.60
2019-03-28T15:09:28.039Z,1.37
2019-03-28T15:11:58.470Z,1.30
2019-03-28T15:14:28.942Z,1.45
2019-03-28T15:16:59.373Z,1.80
2019-03-28T15:19:29.777Z,2.42
2019-03-28T15:22:00.246Z,2.52
2019-03-28T15:24:31.550Z,2.08
2019-03-28T15:27:02.522Z,1.35
2019-03-28T15:29:33.634Z,1.82
2019-03-28T15:32:04.046Z,1.22
2019-03-28T15:34:34.452Z,1.50
2019-03-28T15:37:05.054Z,2.80
2019-03-28T15:39:35.415Z,2.08
2019-03-28T15:42:05.898Z,2.00
2019-03-28T15:44:39.180Z,1.75
2019-03-28T15:47:08.299Z,1.62
2019-03-28T15:49:38.673Z,1.50
2019-03-28T15:52:09.102Z,3.00
2019-03-28T15:54:39.824Z,2.50
2019-03-28T15:57:10.300Z,3.30
2019-03-28T15:59:41.714Z,2.40
2019-03-28T16:02:12.099Z,1.87
2019-03-28T16:04:42.500Z,3.50
2019-03-28T16:07:12.934Z,2.17
2019-03-28T16:09:43.273Z,2.40
2019-03-28T16:12:13.639Z,2.37
2019-03-28T16:14:44.078Z,1.50
2019-03-28T16:17:14.453Z,2.83
2019-03-28T16:19:45.298Z,2.22
2019-03-28T16:22:15.821Z,1.62
2019-03-28T16:24:46.598Z,1.20
2019-03-28T16:27:22.111Z,1.45
2019-03-28T16:29:55.703Z,2.17
2019-03-28T16:32:26.161Z,3.00
2019-03-28T16:34:56.572Z,3.45
2019-03-28T16:37:27.672Z,2.37
2019-03-28T16:39:58.316Z,2.58
2019-03-28T16:42:28.661Z,2.58
2019-03-28T16:44:59.077Z,1.42
2019-03-28T16:47:29.589Z,2.12
2019-03-28T16:50:00.027Z,2.00
2019-03-28T16:52:32.196Z,2.35
2019-03-28T16:55:02.953Z,2.90
2019-03-28T16:57:34.391Z,3.00
2019-03-28T17:00:08.229Z,2.35
2019-03-28T17:02:40.237Z,1.67
2019-03-28T17:05:11.056Z,1.50
2019-03-28T17:07:42.627Z,2.72
2019-03-28T17:10:19.617Z,1.50
2019-03-28T17:12:50.730Z,1.85
2019-03-28T17:15:21.097Z,2.35
2019-03-28T17:17:54.945Z,3.70
2019-03-28T17:20:28.489Z,2.50
2019-03-28T17:22:59.121Z,2.57
2019-03-28T17:25:29.634Z,2.42
2019-03-28T17:28:00.174Z,2.00
2019-03-28T17:30:30.866Z,2.45
2019-03-28T17:33:01.185Z,1.70
2019-03-28T17:35:31.632Z,2.05
2019-03-28T17:38:02.622Z,1.75
2019-03-28T17:40:32.915Z,2.17
2019-03-28T17:43:03.394Z,2.50
2019-03-28T17:45:34.208Z,2.40
2019-03-28T17:48:04.808Z,1.98
2019-03-28T17:50:35.406Z,1.75
2019-03-28T17:53:06.062Z,1.55
2019-03-28T17:55:36.928Z,1.57
2019-03-28T17:58:08.526Z,1.22
2019-03-28T18:00:39.591Z,1.30
2019-03-28T18:03:10.127Z,1.42
2019-03-28T18:05:42.527Z,1.10
2019-03-28T18:08:13.121Z,0.90
2019-03-28T18:10:43.839Z,1.00
2019-03-28T18:13:15.530Z,1.10
2019-03-28T18:15:45.993Z,1.50
2019-03-28T18:18:16.449Z,1.30
2019-03-28T18:20:47.223Z,1.55
2019-03-28T18:23:17.647Z,1.72
2019-03-28T18:25:48.054Z,1.20
2019-03-28T18:28:18.443Z,1.37
2019-03-28T18:30:48.951Z,1.37
2019-03-28T18:33:19.365Z,2.58
2019-03-28T18:35:49.923Z,2.20
2019-03-28T18:38:20.555Z,3.17
2019-03-28T18:40:51.228Z,1.72
2019-03-28T18:43:22.283Z,2.02
2019-03-28T18:45:52.774Z,1.67
2019-03-28T18:48:30.746Z,1.85
2019-03-28T18:50:56.279Z,1.50
2019-03-28T18:53:26.716Z,1.70
2019-03-28T18:56:04.125Z,1.60
2019-03-28T18:58:37.533Z,1.70
2019-03-28T19:03:38.355Z,1.80
2019-03-28T19:06:08.726Z,1.42
2019-03-28T19:08:39.212Z,1.10
2019-03-28T19:11:09.784Z,1.82
2019-03-28T19:13:40.130Z,1.90
2019-03-28T19:16:10.731Z,2.00
2019-03-28T19:18:42.020Z,1.98
2019-03-28T19:21:12.403Z,2.08
2019-03-28T19:23:42.831Z,1.80
2019-03-28T19:26:13.367Z,2.02
2019-03-28T19:28:44.088Z,2.10
2019-03-28T19:31:14.655Z,1.90
2019-03-28T19:33:45.463Z,2.15
2019-03-28T19:36:16.606Z,2.20
2019-03-28T19:38:47.574Z,2.20
2019-03-28T19:41:18.050Z,1.90
2019-03-28T19:43:48.607Z,2.08
2019-03-28T19:46:20.591Z,1.82
2019-03-28T19:48:51.032Z,1.77
2019-03-28T19:51:21.647Z,1.65
2019-03-28T19:53:52.046Z,2.08
2019-03-28T19:56:22.606Z,2.60
2019-03-28T19:58:53.179Z,2.12
2019-03-28T20:01:23.713Z,1.57
2019-03-28T20:03:55.176Z,1.62
2019-03-28T20:06:25.808Z,2.27
2019-03-28T20:08:56.178Z,1.95
2019-03-28T20:11:26.877Z,2.12
2019-03-28T20:13:57.711Z,1.50
2019-03-28T20:16:28.107Z,1.70
2019-03-28T20:18:59.329Z,1.77
2019-03-28T20:21:29.705Z,1.77
2019-03-28T20:24:00.144Z,1.80
2019-03-28T20:26:30.609Z,2.12
2019-03-28T20:29:00.985Z,1.62
2019-03-28T20:31:31.328Z,1.57
2019-03-28T20:34:02.035Z,1.50
2019-03-28T20:36:38.509Z,1.62
2019-03-28T20:39:08.607Z,1.25
2019-03-28T20:41:39.691Z,1.47
2019-03-28T20:44:11.656Z,1.55
2019-03-28T20:46:42.215Z,1.82
2019-03-28T20:49:12.559Z,1.32
2019-03-28T20:51:42.908Z,1.37
2019-03-28T20:54:14.354Z,1.90
2019-03-28T20:56:44.755Z,1.62
2019-03-28T20:59:15.138Z,2.02
2019-03-28T21:01:45.550Z,1.35
2019-03-28T21:04:30.335Z,1.40
2019-03-28T21:06:48.935Z,1.12
2019-03-28T21:09:19.490Z,1.20
2019-03-28T21:11:52.746Z,1.40
2019-03-28T21:14:23.129Z,1.22
2019-03-28T21:16:53.596Z,1.20
2019-03-28T21:19:23.963Z,1.05
2019-03-28T21:21:55.011Z,1.20
2019-03-28T21:24:25.797Z,1.00
2019-03-28T21:26:56.160Z,1.20
2019-03-28T21:29:26.629Z,1.50
2019-03-28T21:31:57.386Z,1.40
2019-03-28T21:34:27.796Z,1.60
2019-03-28T21:36:58.876Z,1.60
2019-03-28T21:39:29.396Z,1.15
2019-03-28T21:41:59.903Z,1.72
2019-03-28T21:44:30.271Z,1.67
2019-03-28T21:47:00.590Z,1.70
2019-03-28T21:49:31.093Z,1.50
2019-03-28T21:52:01.450Z,1.32
2019-03-28T21:54:32.105Z,1.55
2019-03-28T21:57:02.611Z,1.60
2019-03-28T21:59:32.955Z,1.40
2019-03-28T22:02:03.290Z,1.90
2019-03-28T22:04:34.920Z,1.50
2019-03-28T22:07:05.431Z,1.90
2019-03-28T22:09:35.894Z,1.47
2019-03-28T22:12:06.465Z,1.10
2019-03-28T22:14:37.595Z,1.55
2019-03-28T22:17:08.143Z,1.40
2019-03-28T22:19:38.622Z,1.40
2019-03-28T22:22:09.468Z,1.40
2019-03-28T22:24:39.834Z,1.10
2019-03-28T22:27:10.435Z,1.32
2019-03-28T22:29:40.750Z,1.20
2019-03-28T22:32:11.872Z,1.30
2019-03-28T22:34:50.282Z,1.35
2019-03-28T22:37:20.369Z,1.20
2019-03-28T22:39:50.912Z,1.30
2019-03-28T22:42:21.492Z,1.40
2019-03-28T22:44:51.902Z,1.35
2019-03-28T22:47:23.168Z,1.77
2019-03-28T22:49:53.502Z,1.32
2019-03-28T22:52:25.141Z,1.67
2019-03-28T22:54:58.200Z,1.55
2019-03-28T22:57:28.617Z,1.52
2019-03-28T22:59:58.981Z,1.25
2019-03-28T23:02:29.402Z,1.20
2019-03-28T23:04:59.884Z,1.22
2019-03-28T23:07:30.191Z,0.95
2019-03-28T23:10:00.635Z,1.45
2019-03-28T23:12:31.124Z,1.35
2019-03-28T23:15:02.139Z,1.42
2019-03-28T23:17:32.684Z,1.37
2019-03-28T23:20:03.101Z,1.30
2019-03-28T23:22:33.986Z,1.52
2019-03-28T23:25:04.749Z,1.57
2019-03-28T23:27:35.590Z,1.52
2019-03-28T23:30:07.594Z,1.50
2019-03-28T23:32:39.327Z,1.67
2019-03-28T23:35:11.053Z,1.52
2019-03-28T23:37:41.643Z,1.55
2019-03-28T23:40:12.304Z,1.25
2019-03-28T23:42:43.999Z,1.32
2019-03-28T23:45:14.861Z,1.40
2019-03-28T23:47:45.333Z,1.40
2019-03-28T23:50:16.919Z,1.57
2019-03-28T23:52:48.185Z,1.32
2019-03-28T23:55:21.315Z,1.25
2019-03-28T23:57:51.624Z,1.77
